Nikiski, AK

7:22 PM AKDT on July 29, 2014 (GMT -0800)
Kenai Municipal (PAEN) Elev 95 ft | 60.58 °N, 151.24 °W | Change Station

Current weather conditions updated 29 minutes ago

Clear
Clear
68 °F
Feels Like 68 °F
N
7
Wind Variable Wind from West

Tomorrow is forecast to be nearly the same temperature as today.

Today
High -- | Low -- °F
--% Chance of Precip.
Yesterday
High -- | Low -- °F
Precip. -- in
5:34 AM 10:47 PM
Waxing Crescent, 9% visible
Pressure 29.97 in
Visibility 10.0 miles
Clouds Clear
Dew Point 50 °F
Humidity 52%
Rainfall 0.05 in
Snow Depth Not available.
UV 2 out of 12
Pollen Not available.
Air Quality Not available.
Flu Activity Not available.
METAR PAEN 300253Z 27006KT 10SM CLR 20/10 A2997 RMK AO2 SLP148 T02000100 56002

More Conditions Fewer Conditions

Pressure 29.97 in
Visibility 10.0 miles
Clouds Clear
Dew Point 50 °F
Humidity 52%
Rainfall 0.05 in
Snow Depth Not available.
UV 2 out of 12
Pollen Not available.
Air Quality Not available.
Flu Activity Not available.
METAR PAEN 300253Z 27006KT 10SM CLR 20/10 A2997 RMK AO2 SLP148 T02000100 56002

More Conditions Fewer Conditions

10-Day Weather Forecast

Almanac

Astronomy

Jul. 29, 2014 Rise Set
Actual Time 5:34 AM AKDT 10:47 PM AKDT
Civil Twilight 4:28 AM AKDT 11:52 PM AKDT
Nautical Twilight 2:44 AM AKDT 1:39 AM AKDT
Astronomical Twilight Sun does not rise Sun does not rise
Moon 9:24 AM AKDT (7/29) 10:53 PM AKDT (7/29)
Length of Visible Light 19h 24m
Length of Day
17h 12m
Tomorrow will be 4m 58s shorter.
Waxing Crescent, 9% of the Moon is Illuminated
Today
Waxing Crescent
Aug 3
First Quarter
Aug 10
Full
Aug 17
Last Quarter
Aug 25
New

Today's Extremes

State Highs State Lows

Community

WunderPhotos

Upload Photos

1,738,989 photos uploaded!

Nearby

Snow Depth

Station Depth Elevation
Cooper Lake 19 in 1200 ft
Point Mackenzie 0 in 200 ft
MF Bradley River 212 in 2300 ft
Indian Pass 1 in 2300 ft
Mcneil Canyon 1 in 1320 ft

Earthquake Activity

City Distance Mag. Time & Date
No recent earthquake activity has been reported nearby.
Minimum magnitude displayed is 2.5.

Coastal Water Temperatures

Place Temperature
No Stations Reporting

Nearby Weather Stations

Station Location Temp. Heat Index Dew Point Humidity Wind Precip. Elev Updated Type
Kenai, Kenai, AK 65.4 °F - 55 °F 69% NW  at  0.4 mph 0.00 in / hr 95 ft 7:22 PM AKDT Rapid Fire
RAWS SWANSON RIVER AK, Sterling, AK 71 °F 77 °F 50 °F 48% WNW  at  2 mph 0.00 in / hr 215 ft 5:50 PM AKDT MADIS
RAWS SOLDOTNA AKKKS AK, Soldotna, AK 74 °F 77 °F 48 °F 40% North  at  4 mph 0.00 in / hr 154 ft 6:27 PM AKDT MADIS
Irish Hills, Soldotna, AK 65.8 °F - 47 °F 50% NW  at  4.6 mph 0.00 in / hr 200 ft 7:22 PM AKDT Rapid Fire

Show More Stations Show Fewer Stations